createdAt,value
2018-05-12T00:00:43.838Z,17.33
2018-05-12T00:03:12.950Z,17.67
2018-05-12T00:05:41.961Z,20.30
2018-05-12T00:08:10.193Z,19.73
2018-05-12T00:10:39.236Z,19.13
2018-05-12T00:13:07.494Z,17.80
2018-05-12T00:15:35.753Z,18.47
2018-05-12T00:18:04.758Z,21.20
2018-05-12T00:20:32.994Z,20.17
2018-05-12T00:23:01.249Z,18.30
2018-05-12T00:25:29.487Z,22.20
2018-05-12T00:27:57.771Z,20.80
2018-05-12T00:30:26.007Z,18.20
2018-05-12T00:32:54.714Z,21.43
2018-05-12T00:35:22.954Z,17.20
2018-05-12T00:37:51.193Z,17.27
2018-05-12T00:40:19.441Z,17.57
2018-05-12T00:42:47.689Z,17.47
2018-05-12T00:45:16.210Z,20.37
2018-05-12T00:47:44.445Z,17.30
2018-05-12T00:50:12.681Z,18.80
2018-05-12T00:52:40.935Z,19.23
2018-05-12T00:55:09.174Z,18.83
2018-05-12T00:57:38.501Z,20.40
2018-05-12T01:00:06.745Z,18.57
2018-05-12T01:02:34.983Z,18.90
2018-05-12T01:05:03.233Z,21.47
2018-05-12T01:07:31.473Z,21.87
2018-05-12T01:09:59.718Z,20.33
2018-05-12T01:12:27.974Z,21.10
2018-05-12T01:14:56.213Z,19.10
2018-05-12T01:17:25.225Z,18.70
2018-05-12T01:19:53.465Z,18.37
2018-05-12T01:22:21.709Z,19.30
2018-05-12T01:24:49.966Z,18.63
2018-05-12T01:27:18.209Z,19.17
2018-05-12T01:29:47.219Z,19.00
2018-05-12T01:32:15.470Z,18.67
2018-05-12T01:34:43.722Z,19.23
2018-05-12T01:37:11.970Z,18.83
2018-05-12T01:39:40.218Z,17.63
2018-05-12T01:42:08.493Z,16.07
2018-05-12T01:44:37.511Z,18.57
2018-05-12T01:47:05.761Z,18.37
2018-05-12T01:49:34.022Z,18.33
2018-05-12T01:52:03.034Z,19.70
2018-05-12T01:54:31.514Z,20.33
2018-05-12T01:56:59.758Z,19.63
2018-05-12T01:59:28.005Z,17.70
2018-05-12T02:01:56.255Z,17.53
2018-05-12T02:04:24.495Z,13.63
2018-05-12T02:06:53.505Z,13.37
2018-05-12T02:09:21.754Z,15.13
2018-05-12T02:11:49.994Z,12.83
2018-05-12T02:14:18.469Z,13.00
2018-05-12T02:16:46.710Z,14.23
2018-05-12T02:19:15.731Z,10.97
2018-05-12T02:21:43.965Z,10.67
2018-05-12T02:24:12.978Z,10.60
2018-05-12T02:26:41.218Z,11.77
2018-05-12T02:29:09.466Z,11.50
2018-05-12T02:31:37.702Z,10.43
2018-05-12T02:34:06.698Z,10.67
2018-05-12T02:36:34.950Z,11.67
2018-05-12T02:39:04.274Z,10.43
2018-05-12T02:41:33.283Z,12.50
2018-05-12T02:44:01.518Z,9.63
2018-05-12T02:46:29.762Z,9.83
2018-05-12T02:48:58.014Z,11.30
2018-05-12T02:51:26.254Z,10.47
2018-05-12T02:53:55.572Z,9.67
2018-05-12T02:56:23.806Z,9.17
2018-05-12T02:58:52.040Z,9.47
2018-05-12T03:01:20.600Z,9.43
2018-05-12T03:03:49.593Z,9.80
2018-05-12T03:06:17.827Z,9.47
2018-05-12T03:08:46.074Z,10.47
2018-05-12T03:11:14.314Z,9.73
2018-05-12T03:13:43.321Z,11.10
2018-05-12T03:16:11.565Z,9.20
2018-05-12T03:18:39.815Z,10.07
2018-05-12T03:21:08.049Z,12.97
2018-05-12T03:23:36.314Z,11.07
2018-05-12T03:26:05.369Z,11.33
2018-05-12T03:28:33.623Z,11.30
2018-05-12T03:31:01.868Z,11.77
2018-05-12T03:33:30.114Z,11.37
2018-05-12T03:35:59.118Z,11.00
2018-05-12T03:38:28.421Z,12.03
2018-05-12T03:40:57.429Z,15.60
2018-05-12T03:43:25.670Z,11.63
2018-05-12T03:45:53.973Z,11.40
2018-05-12T03:48:22.210Z,10.67
2018-05-12T03:50:50.526Z,10.83
2018-05-12T03:53:19.522Z,10.37
2018-05-12T03:55:47.781Z,10.27
2018-05-12T03:58:16.777Z,11.17
2018-05-12T04:00:45.782Z,10.10
2018-05-12T04:03:14.035Z,10.43
2018-05-12T04:09:08.722Z,10.17
2018-05-12T04:11:54.810Z,9.73
2018-05-12T04:14:23.053Z,10.03
2018-05-12T04:16:51.306Z,10.57
2018-05-12T04:19:20.321Z,10.40
2018-05-12T04:21:48.569Z,10.50
2018-05-12T04:24:17.565Z,8.60
2018-05-12T04:26:46.566Z,7.33
2018-05-12T04:29:15.675Z,7.83
2018-05-12T04:31:44.673Z,5.70
2018-05-12T04:34:12.898Z,6.50
2018-05-12T04:36:41.133Z,7.17
2018-05-12T04:39:09.394Z,6.63
2018-05-12T04:41:37.964Z,6.90
2018-05-12T04:44:06.962Z,6.47
2018-05-12T04:46:35.194Z,6.73
2018-05-12T04:49:03.438Z,6.63
2018-05-12T04:51:31.677Z,7.53
2018-05-12T04:54:00.698Z,7.67
2018-05-12T04:56:28.926Z,8.23
2018-05-12T04:58:57.169Z,7.43
2018-05-12T05:01:25.397Z,7.47
2018-05-12T05:03:54.410Z,8.70
2018-05-12T05:06:22.646Z,7.47
2018-05-12T05:08:50.929Z,7.20
2018-05-12T05:11:19.183Z,6.30
2018-05-12T05:13:47.414Z,6.67
2018-05-12T05:16:15.978Z,5.73
2018-05-12T05:18:44.981Z,6.60
2018-05-12T05:21:13.220Z,5.20
2018-05-12T05:23:41.460Z,5.73
2018-05-12T05:26:09.797Z,5.57
2018-05-12T05:28:38.817Z,5.30
2018-05-12T05:31:07.482Z,6.07
2018-05-12T05:33:36.485Z,4.37
2018-05-12T05:36:04.755Z,5.00
2018-05-12T05:38:33.771Z,4.50
2018-05-12T05:41:02.007Z,5.10
2018-05-12T05:43:31.226Z,4.23
2018-05-12T05:46:00.214Z,4.47
2018-05-12T05:48:29.210Z,4.10
2018-05-12T05:50:57.454Z,4.17
2018-05-12T05:53:25.683Z,4.80
2018-05-12T05:55:54.249Z,4.10
2018-05-12T05:58:22.542Z,4.50
2018-05-12T06:00:50.766Z,4.70
2018-05-12T06:03:19.002Z,4.80
2018-05-12T06:05:47.439Z,3.70
2018-05-12T06:08:16.434Z,3.90
2018-05-12T06:10:45.429Z,4.10
2018-05-12T06:13:14.437Z,3.57
2018-05-12T06:15:42.681Z,3.53
2018-05-12T06:18:10.975Z,3.93
2018-05-12T06:20:39.178Z,4.20
2018-05-12T06:23:07.423Z,4.23
2018-05-12T06:25:36.430Z,4.43
2018-05-12T06:28:04.689Z,4.07
2018-05-12T06:30:33.701Z,4.97
2018-05-12T06:33:01.938Z,3.33
2018-05-12T06:35:30.185Z,4.27
2018-05-12T06:37:58.415Z,6.20
2018-05-12T06:40:27.450Z,7.77
2018-05-12T06:42:55.785Z,3.93
2018-05-12T06:45:24.297Z,5.20
2018-05-12T06:47:52.532Z,6.77
2018-05-12T06:50:21.521Z,4.93
2018-05-12T06:52:50.584Z,5.67
2018-05-12T06:55:18.770Z,4.63
2018-05-12T06:57:47.007Z,4.77
2018-05-12T07:00:15.245Z,5.23
2018-05-12T07:02:44.260Z,5.27
2018-05-12T07:05:12.551Z,6.53
2018-05-12T07:07:40.776Z,5.47
2018-05-12T07:10:09.042Z,4.87
2018-05-12T07:12:37.557Z,4.73
2018-05-12T07:15:06.602Z,6.27
2018-05-12T07:17:34.829Z,5.13
2018-05-12T07:20:03.073Z,4.80
2018-05-12T07:22:31.318Z,7.00
2018-05-12T07:24:59.547Z,5.63
2018-05-12T07:27:28.866Z,6.17
2018-05-12T07:29:57.154Z,5.27
2018-05-12T07:32:25.378Z,6.43
2018-05-12T07:34:53.625Z,6.60
2018-05-12T07:37:21.859Z,6.10
2018-05-12T07:39:50.090Z,8.00
2018-05-12T07:42:18.605Z,8.73
2018-05-12T07:44:47.605Z,10.37
2018-05-12T07:47:15.854Z,10.73
2018-05-12T07:49:44.129Z,15.57
2018-05-12T07:52:12.355Z,14.53
2018-05-12T07:54:40.594Z,15.07
2018-05-12T07:57:09.599Z,12.83
2018-05-12T07:59:38.619Z,12.70
2018-05-12T08:02:06.966Z,11.17
2018-05-12T08:04:36.214Z,12.23
2018-05-12T08:07:04.452Z,13.47
2018-05-12T08:09:32.690Z,14.17
2018-05-12T08:12:00.941Z,15.37
2018-05-12T08:14:29.182Z,13.37
2018-05-12T08:16:57.421Z,14.73
2018-05-12T08:19:25.785Z,16.43
2018-05-12T08:21:54.024Z,14.43
2018-05-12T08:24:22.283Z,14.53
2018-05-12T08:26:50.563Z,14.50
2018-05-12T08:29:18.773Z,15.37
2018-05-12T08:31:47.032Z,14.17
2018-05-12T08:34:15.284Z,13.83
2018-05-12T08:36:43.537Z,13.47
2018-05-12T08:39:12.553Z,14.50
2018-05-12T08:41:40.789Z,13.10
2018-05-12T08:44:09.045Z,12.23
2018-05-12T08:46:37.292Z,12.30
2018-05-12T08:49:05.543Z,11.63
2018-05-12T08:51:34.534Z,13.33
2018-05-12T08:54:03.555Z,13.07
2018-05-12T08:56:31.816Z,11.30
2018-05-12T08:59:00.820Z,11.67
2018-05-12T09:01:29.388Z,10.73
2018-05-12T09:03:58.399Z,11.57
2018-05-12T09:06:26.637Z,11.50
2018-05-12T09:08:54.881Z,8.90
2018-05-12T09:11:23.119Z,12.63
2018-05-12T09:13:51.374Z,12.20
2018-05-12T09:16:20.374Z,9.93
2018-05-12T09:18:49.381Z,8.60
2018-05-12T09:21:17.622Z,8.50
2018-05-12T09:23:45.866Z,7.43
2018-05-12T09:26:14.117Z,12.27
2018-05-12T09:28:42.360Z,10.90
2018-05-12T09:31:11.366Z,7.80
2018-05-12T09:33:39.606Z,7.57
2018-05-12T09:36:07.857Z,12.07
2018-05-12T09:38:36.102Z,14.40
2018-05-12T09:41:04.362Z,15.43
2018-05-12T09:43:33.361Z,13.33
2018-05-12T09:46:01.605Z,12.20
2018-05-12T09:48:29.853Z,12.90
2018-05-12T09:50:58.094Z,9.97
2018-05-12T09:53:26.330Z,10.17
2018-05-12T09:55:55.353Z,13.37
2018-05-12T09:58:24.405Z,11.10
2018-05-12T10:00:52.629Z,9.67
2018-05-12T10:03:20.893Z,10.55
2018-05-12T10:05:49.891Z,10.50
2018-05-12T10:08:18.136Z,12.00
2018-05-12T10:10:47.163Z,11.65
2018-05-12T10:13:15.409Z,9.73
2018-05-12T10:15:43.654Z,10.63
2018-05-12T10:18:11.885Z,9.88
2018-05-12T10:20:40.894Z,8.37
2018-05-12T10:23:09.127Z,11.48
2018-05-12T10:25:37.744Z,9.75
2018-05-12T10:28:06.040Z,9.40
2018-05-12T10:30:34.261Z,9.35
2018-05-12T10:33:02.498Z,9.93
2018-05-12T10:35:31.050Z,10.88
2018-05-12T10:37:59.282Z,8.20
2018-05-12T10:40:27.513Z,8.30
2018-05-12T10:42:55.757Z,8.60
2018-05-12T10:45:24.802Z,8.90
2018-05-12T10:47:53.159Z,10.50
2018-05-12T10:50:21.396Z,9.15
2018-05-12T10:52:49.624Z,7.43
2018-05-12T10:55:17.873Z,8.68
2018-05-12T10:57:46.965Z,9.70
2018-05-12T11:00:15.222Z,7.78
2018-05-12T11:02:43.465Z,8.67
2018-05-12T11:05:11.697Z,9.75
2018-05-12T11:07:39.943Z,16.87
2018-05-12T11:10:08.190Z,10.18
2018-05-12T11:12:36.438Z,10.02
2018-05-12T11:15:04.702Z,8.50
2018-05-12T11:17:32.969Z,10.60
2018-05-12T11:20:01.978Z,14.05
2018-05-12T11:22:30.230Z,10.13
2018-05-12T11:24:59.234Z,15.50
2018-05-12T11:27:27.481Z,10.82
2018-05-12T11:29:56.502Z,9.80
2018-05-12T11:32:25.510Z,9.70
2018-05-12T11:34:53.797Z,10.25
2018-05-12T11:37:22.034Z,8.77
2018-05-12T11:39:51.046Z,10.80
2018-05-12T11:42:19.294Z,9.80
2018-05-12T11:44:47.569Z,8.68
2018-05-12T11:47:15.870Z,9.18
2018-05-12T11:49:44.873Z,8.80
2018-05-12T11:52:13.112Z,10.20
2018-05-12T11:54:41.338Z,8.68
2018-05-12T11:57:09.594Z,11.40
2018-05-12T11:59:37.833Z,10.07
2018-05-12T12:02:06.073Z,10.85
2018-05-12T12:04:34.315Z,9.63
2018-05-12T12:07:02.573Z,7.28
2018-05-12T12:09:31.593Z,6.97
2018-05-12T12:11:59.845Z,7.05
2018-05-12T12:14:28.861Z,7.37
2018-05-12T12:16:57.141Z,8.18
2018-05-12T12:19:25.397Z,8.63
2018-05-12T12:21:54.416Z,6.80
2018-05-12T12:24:22.657Z,6.35
2018-05-12T12:26:51.663Z,5.78
2018-05-12T12:29:20.679Z,8.32
2018-05-12T12:31:48.906Z,6.55
2018-05-12T12:34:17.181Z,10.30
2018-05-12T12:36:45.430Z,11.12
2018-05-12T12:39:13.669Z,6.45
2018-05-12T12:41:41.915Z,7.07
2018-05-12T12:44:10.926Z,5.85
2018-05-12T12:46:39.928Z,9.13
2018-05-12T12:49:08.186Z,7.28
2018-05-12T12:51:37.272Z,6.40
2018-05-12T12:54:05.437Z,6.65
2018-05-12T12:56:33.700Z,12.13
2018-05-12T12:59:01.931Z,8.85
2018-05-12T13:01:30.307Z,7.03
2018-05-12T13:03:58.533Z,6.93
2018-05-12T13:06:26.769Z,6.78
2018-05-12T13:08:55.022Z,6.68
2018-05-12T13:11:23.265Z,6.97
2018-05-12T13:13:51.511Z,7.18
2018-05-12T13:16:19.741Z,6.30
2018-05-12T13:18:48.750Z,6.03
2018-05-12T13:21:17.002Z,5.90
2018-05-12T13:23:46.003Z,6.68
2018-05-12T13:26:15.001Z,8.23
2018-05-12T13:28:44.026Z,6.60
2018-05-12T13:31:12.582Z,5.57
2018-05-12T13:33:40.935Z,5.80
2018-05-12T13:36:09.086Z,6.15
2018-05-12T13:38:37.705Z,6.32
2018-05-12T13:41:06.722Z,6.40
2018-05-12T13:43:34.943Z,5.30
2018-05-12T13:46:03.194Z,6.03
2018-05-12T13:48:31.441Z,6.68
2018-05-12T13:50:59.676Z,7.05
2018-05-12T13:53:28.182Z,5.53
2018-05-12T13:55:57.216Z,4.62
2018-05-12T13:58:25.419Z,5.68
2018-05-12T14:00:53.967Z,4.40
2018-05-12T14:03:22.194Z,5.70
2018-05-12T14:05:50.426Z,6.07
2018-05-12T14:08:18.673Z,5.47
2018-05-12T14:10:46.912Z,4.18
2018-05-12T14:13:15.162Z,5.05
2018-05-12T14:15:43.390Z,8.23
2018-05-12T14:18:12.789Z,4.30
2018-05-12T14:20:41.793Z,4.00
2018-05-12T14:23:10.023Z,5.00
2018-05-12T14:25:38.393Z,4.18
2018-05-12T14:28:06.630Z,4.53
2018-05-12T14:30:34.869Z,5.75
2018-05-12T14:33:03.111Z,4.87
2018-05-12T14:35:31.342Z,4.32
2018-05-12T14:37:59.588Z,5.85
2018-05-12T14:40:27.817Z,6.95
2018-05-12T14:42:56.374Z,5.18
2018-05-12T14:45:24.610Z,6.85
2018-05-12T14:47:52.850Z,4.32
2018-05-12T14:50:21.398Z,3.62
2018-05-12T14:52:50.415Z,4.55
2018-05-12T14:55:18.636Z,4.62
2018-05-12T14:57:46.881Z,4.35
2018-05-12T15:00:15.332Z,3.12
2018-05-12T15:02:44.326Z,3.60
2018-05-12T15:05:12.564Z,4.30
2018-05-12T15:07:40.810Z,3.70
2018-05-12T15:10:09.046Z,4.18
2018-05-12T15:12:38.058Z,5.25
2018-05-12T15:15:06.289Z,5.22
2018-05-12T15:17:35.310Z,5.12
2018-05-12T15:20:03.558Z,3.95
2018-05-12T15:22:31.791Z,3.85
2018-05-12T15:25:00.038Z,4.28
2018-05-12T15:27:29.034Z,3.40
2018-05-12T15:29:57.274Z,3.60
2018-05-12T15:32:25.527Z,4.77
2018-05-12T15:34:53.769Z,4.65
2018-05-12T15:37:22.014Z,3.73
2018-05-12T15:39:51.010Z,3.83
2018-05-12T15:42:20.017Z,4.12
2018-05-12T15:44:49.022Z,3.97
2018-05-12T15:47:17.266Z,4.27
2018-05-12T15:49:45.506Z,3.27
2018-05-12T15:52:14.146Z,5.90
2018-05-12T15:54:43.153Z,4.17
2018-05-12T15:57:11.386Z,3.40
2018-05-12T15:59:39.631Z,4.13
2018-05-12T16:02:07.879Z,3.77
2018-05-12T16:04:36.121Z,3.47
2018-05-12T16:07:04.718Z,4.10
2018-05-12T16:09:33.723Z,5.37
2018-05-12T16:12:01.950Z,3.80
2018-05-12T16:14:30.199Z,3.58
2018-05-12T16:16:58.436Z,3.43
2018-05-12T16:19:27.456Z,4.97
2018-05-12T16:21:55.686Z,3.37
2018-05-12T16:24:23.938Z,3.83
2018-05-12T16:26:52.174Z,5.17
2018-05-12T16:29:20.421Z,4.27
2018-05-12T16:31:48.653Z,3.67
2018-05-12T16:34:16.901Z,3.93
2018-05-12T16:36:45.138Z,3.40
2018-05-12T16:39:13.373Z,3.27
2018-05-12T16:41:41.924Z,3.30
2018-05-12T16:44:10.916Z,4.70
2018-05-12T16:46:39.909Z,4.47
2018-05-12T16:49:08.153Z,3.63
2018-05-12T16:51:36.657Z,3.33
2018-05-12T16:54:05.669Z,3.53
2018-05-12T16:56:33.907Z,4.43
2018-05-12T16:59:02.280Z,3.20
2018-05-12T17:01:30.498Z,3.20
2018-05-12T17:03:58.751Z,3.20
2018-05-12T17:06:27.859Z,3.60
2018-05-12T17:08:56.789Z,3.37
2018-05-12T17:11:25.025Z,3.30
2018-05-12T17:13:53.271Z,4.93
2018-05-12T17:16:21.514Z,3.70
2018-05-12T17:18:49.746Z,3.40
2018-05-12T17:21:18.757Z,3.60
2018-05-12T17:23:46.988Z,2.70
2018-05-12T17:26:15.220Z,2.80
2018-05-12T17:28:43.457Z,3.50
2018-05-12T17:31:12.467Z,4.60
2018-05-12T17:33:40.706Z,3.27
2018-05-12T17:36:10.457Z,2.90
2018-05-12T17:38:38.703Z,4.73
2018-05-12T17:41:06.933Z,4.53
2018-05-12T17:43:35.181Z,2.90
2018-05-12T17:46:03.430Z,3.43
2018-05-12T17:48:32.431Z,3.30
2018-05-12T17:51:01.445Z,3.07
2018-05-12T17:53:29.694Z,3.73
2018-05-12T17:55:58.689Z,3.40
2018-05-12T17:58:27.702Z,9.37
2018-05-12T18:00:55.938Z,6.40
2018-05-12T18:03:24.555Z,5.33
2018-05-12T18:05:53.558Z,4.07
2018-05-12T18:08:21.802Z,4.70
2018-05-12T18:10:50.050Z,3.87
2018-05-12T18:13:18.288Z,4.37
2018-05-12T18:15:46.522Z,4.17
2018-05-12T18:18:16.282Z,4.77
2018-05-12T18:20:44.506Z,8.27
2018-05-12T18:23:12.870Z,3.80
2018-05-12T18:25:41.911Z,4.67
2018-05-12T18:28:10.921Z,4.70
2018-05-12T18:30:39.153Z,6.80
2018-05-12T18:33:07.405Z,5.23
2018-05-12T18:35:35.638Z,4.43
2018-05-12T18:38:03.874Z,4.40
2018-05-12T18:40:32.885Z,4.93
2018-05-12T18:43:01.138Z,5.97
2018-05-12T18:45:29.373Z,4.90
2018-05-12T18:47:57.661Z,5.60
2018-05-12T18:50:25.910Z,4.10
2018-05-12T18:52:54.146Z,7.03
2018-05-12T18:55:22.375Z,5.80
2018-05-12T18:57:50.937Z,4.30
2018-05-12T19:00:19.930Z,4.70
2018-05-12T19:02:48.167Z,6.10
2018-05-12T19:05:17.177Z,6.07
2018-05-12T19:07:46.189Z,5.67
2018-05-12T19:10:14.453Z,4.60
2018-05-12T19:12:43.454Z,4.67
2018-05-12T19:15:12.445Z,5.77
2018-05-12T19:17:41.469Z,4.83
2018-05-12T19:20:09.714Z,4.13
2018-05-12T19:22:38.718Z,4.40
2018-05-12T19:25:06.945Z,3.90
2018-05-12T19:27:35.191Z,4.03
2018-05-12T19:30:03.437Z,4.13
2018-05-12T19:32:32.627Z,4.40
2018-05-12T19:35:01.638Z,3.63
2018-05-12T19:37:29.869Z,5.07
2018-05-12T19:39:59.610Z,3.80
2018-05-12T19:42:28.617Z,6.00
2018-05-12T19:44:56.853Z,4.60
2018-05-12T19:47:25.082Z,6.93
2018-05-12T19:49:53.333Z,4.43
2018-05-12T19:52:21.577Z,36.33
2018-05-12T19:54:49.823Z,13.63
2018-05-12T19:57:18.070Z,5.27
2018-05-12T19:59:46.310Z,4.63
2018-05-12T20:02:14.637Z,4.60
2018-05-12T20:04:42.874Z,5.43
2018-05-12T20:07:11.879Z,4.80
2018-05-12T20:09:40.874Z,3.93
2018-05-12T20:12:09.225Z,4.10
2018-05-12T20:14:37.502Z,7.60
2018-05-12T20:17:05.749Z,36.40
2018-05-12T20:19:34.004Z,13.20
2018-05-12T20:22:02.277Z,5.43
2018-05-12T20:24:30.506Z,5.23
2018-05-12T20:26:58.750Z,4.20
2018-05-12T20:29:27.107Z,3.90
2018-05-12T20:31:55.358Z,3.87
2018-05-12T20:34:24.438Z,11.33
2018-05-12T20:36:53.525Z,51.63
2018-05-12T20:39:21.920Z,8.70
2018-05-12T20:41:50.923Z,4.57
2018-05-12T20:44:19.168Z,4.27
2018-05-12T20:46:48.198Z,4.10
2018-05-12T20:49:16.517Z,13.00
2018-05-12T20:51:45.191Z,19.50
2018-05-12T20:54:13.426Z,4.80
2018-05-12T20:56:42.448Z,6.47
2018-05-12T20:59:11.003Z,4.70
2018-05-12T21:01:39.299Z,4.30
2018-05-12T21:04:07.521Z,3.97
2018-05-12T21:06:35.809Z,4.37
2018-05-12T21:09:04.058Z,3.70
2018-05-12T21:11:32.305Z,33.13
2018-05-12T21:14:00.591Z,22.57
2018-05-12T21:16:28.842Z,7.00
2018-05-12T21:18:57.084Z,4.77
2018-05-12T21:21:25.329Z,4.57
2018-05-12T21:23:53.587Z,4.07
2018-05-12T21:26:21.805Z,4.30
2018-05-12T21:28:50.065Z,4.80
2018-05-12T21:31:18.314Z,4.73
2018-05-12T21:33:46.554Z,4.43
2018-05-12T21:36:15.582Z,4.53
2018-05-12T21:38:43.810Z,4.20
2018-05-12T21:41:12.842Z,4.57
2018-05-12T21:43:41.086Z,5.03
2018-05-12T21:46:10.172Z,4.33
2018-05-12T21:48:38.669Z,5.57
2018-05-12T21:51:07.739Z,5.17
2018-05-12T21:53:36.804Z,5.20
2018-05-12T21:56:05.418Z,4.93
2018-05-12T21:58:33.702Z,4.73
2018-05-12T22:01:02.772Z,5.10
2018-05-12T22:03:31.069Z,4.53
2018-05-12T22:05:59.358Z,4.50
2018-05-12T22:08:28.424Z,5.40
2018-05-12T22:10:56.701Z,3.90
2018-05-12T22:13:25.014Z,5.67
2018-05-12T22:15:53.336Z,6.13
2018-05-12T22:18:21.621Z,4.47
2018-05-12T22:20:49.922Z,4.13
2018-05-12T22:23:19.613Z,4.43
2018-05-12T22:25:47.922Z,4.43
2018-05-12T22:28:16.974Z,4.57
2018-05-12T22:30:45.222Z,4.27
2018-05-12T22:33:13.452Z,4.03
2018-05-12T22:35:41.689Z,4.77
2018-05-12T22:38:09.922Z,5.00
2018-05-12T22:40:38.934Z,4.70
2018-05-12T22:43:07.182Z,5.47
2018-05-12T22:45:36.186Z,4.43
2018-05-12T22:48:05.183Z,4.17
2018-05-12T22:50:34.486Z,4.27
2018-05-12T22:53:03.483Z,4.30
2018-05-12T22:55:31.745Z,4.23
2018-05-12T22:58:00.758Z,4.50
2018-05-12T23:00:28.989Z,4.27
2018-05-12T23:02:57.234Z,5.37
2018-05-12T23:05:25.463Z,5.13
2018-05-12T23:07:54.474Z,4.93
2018-05-12T23:10:22.718Z,4.60
2018-05-12T23:12:50.966Z,4.47
2018-05-12T23:15:19.216Z,6.57
2018-05-12T23:17:47.452Z,4.73
2018-05-12T23:20:16.457Z,4.73
2018-05-12T23:22:48.314Z,5.33
2018-05-12T23:25:17.311Z,5.30
2018-05-12T23:27:46.322Z,5.53
2018-05-12T23:30:14.554Z,4.93
2018-05-12T23:32:42.799Z,5.37
2018-05-12T23:35:11.026Z,4.77
2018-05-12T23:37:40.038Z,4.77
2018-05-12T23:40:08.270Z,5.27
2018-05-12T23:42:36.502Z,5.00
2018-05-12T23:45:04.749Z,5.23
2018-05-12T23:47:33.845Z,4.97
2018-05-12T23:50:02.847Z,6.60
2018-05-12T23:52:31.134Z,5.10
2018-05-12T23:54:59.499Z,5.27
2018-05-12T23:57:27.738Z,4.70
2018-05-12T23:59:55.969Z,5.00
